• Join FlightAware (Why Join?)
  • Login
  • US Flag 
01:43PM EDT


 

Airport Tracker/Info


-or-


 

Live Flight TrackerFlight Track Log ✈ SAS4425 ✈ 05-May-2013 ✈ ENSB / LYR - ENTC / TOS

Flight Track Log - Related Links

Times and Time Zones

All times are in EDT time to prevent confusion due to time zone crossing. See the SAS4425 flight status page for this flight to view local times or setup timezone preferences in your user account.

Time Position Orientation Groundspeed Altitude Reporting Facility
EDT Latitude Longitude Course Direction KTS MPH feet Rate Location/Type
09:02AM 77.9339 15.6762 172° South  Level Estimated
09:03AM 77.8298 15.7440 172° South  Level Estimated
09:04AM 77.7256 15.8107 172° South  Level Estimated
09:05AM 77.6215 15.8763 172° South  Level Estimated
09:06AM 77.5173 15.9409 172° South  Level Estimated
09:07AM 77.4131 16.0043 172° South  Level Estimated
09:08AM 77.3090 16.0668 172° South  Level Estimated
09:09AM 77.2048 16.1282 173° South  Level Estimated
09:10AM 77.1005 16.1887 173° South  Level Estimated
09:11AM 76.9963 16.2482 173° South  Level Estimated
09:12AM 76.8921 16.3068 173° South  Level Estimated
09:13AM 76.7878 16.3645 173° South  Level Estimated
09:14AM 76.6835 16.4213 173° South  Level Estimated
09:15AM 76.5792 16.4772 173° South  Level Estimated
09:16AM 76.4749 16.5323 173° South  Level Estimated
09:17AM 76.3706 16.5865 173° South  Level Estimated
09:18AM 76.2663 16.6400 173° South  Level Estimated
09:19AM 76.1620 16.6926 173° South  Level Estimated
09:20AM 76.0576 16.7445 173° South  Level Estimated
09:21AM 75.9533 16.7956 173° South  Level Estimated
09:22AM 75.8489 16.8460 173° South  Level Estimated
09:23AM 75.7446 16.8957 173° South  Level Estimated
09:24AM 75.6402 16.9447 173° South  Level Estimated
09:25AM 75.5358 16.9929 173° South  Level Estimated
09:26AM 75.4314 17.0405 173° South  Level Estimated
09:27AM 75.3270 17.0874 174° South  Level Estimated
09:28AM 75.2226 17.1337 174° South  Level Estimated
09:29AM 75.1181 17.1793 174° South  Level Estimated
09:30AM 75.0137 17.2244 174° South  Level Estimated
09:31AM 74.9092 17.2688 174° South  Level Estimated
09:32AM 74.8048 17.3126 174° South  Level Estimated
09:33AM 74.7003 17.3558 174° South  Level Estimated
09:34AM 74.5958 17.3985 174° South  Level Estimated
09:35AM 74.4914 17.4406 174° South  Level Estimated
09:36AM 74.3869 17.4821 174° South  Level Estimated
09:37AM 74.2824 17.5231 174° South  Level Estimated
09:38AM 74.1779 17.5636 174° South  Level Estimated
09:39AM 74.0733 17.6036 174° South  Level Estimated
09:40AM 73.9688 17.6430 174° South  Level Estimated
09:41AM 73.8643 17.6820 174° South  Level Estimated
09:42AM 73.7598 17.7204 174° South  Level Estimated
09:43AM 73.6552 17.7584 174° South  Level Estimated
09:44AM 73.5507 17.7959 174° South  Level Estimated
09:45AM 73.4461 17.8330 174° South  Level Estimated
09:46AM 73.3416 17.8696 174° South  Level Estimated
09:47AM 73.2370 17.9058 174° South  Level Estimated
09:48AM 73.1195 17.9459 174° South  Level Estimated
09:49AM 73.0021 17.9854 174° South  Level Estimated
09:50AM 72.8846 18.0245 174° South  Level Estimated
09:51AM 72.7671 18.0630 174° South  Level Estimated
09:52AM 72.6496 18.1010 174° South  Level Estimated
09:53AM 72.5321 18.1385 175° South  Level Estimated
09:54AM 72.4146 18.1755 175° South  Level Estimated
09:55AM 72.2971 18.2121 175° South  Level Estimated
09:56AM 72.1709 18.2508 175° South  Level Estimated
09:57AM 72.0447 18.2890 175° South  Level Estimated
09:58AM 71.9185 18.3267 175° South  Level Estimated
09:59AM 71.7924 18.3639 175° South  Level Estimated
10:00AM 71.6662 18.4006 175° South  Level Estimated
10:01AM 71.5400 18.4368 175° South  Level Estimated
10:02AM 71.4137 18.4725 175° South  Level Estimated
10:03AM 71.2875 18.5077 175° South  Level Estimated
10:04AM 71.1613 18.5425 175° South  Level Estimated
10:05AM 71.0351 18.5769 175° South  Level Estimated
10:06AM 70.9089 18.6108 175° South  Level Estimated
10:07AM 70.7826 18.6443 175° South  Level Estimated
10:08AM 70.6564 18.6774 175° South  Level Estimated
10:09AM 70.5301 18.7100 175° South  Level Estimated
10:10AM 70.4039 18.7423 175° South  Level Estimated
10:11AM 70.2776 18.7741 175° South  Level Estimated
10:11AM 70.0780 18.8970 175° South 271 312 6,400  Level FlightAware
10:11AM 70.0390 18.8880 185° South 265 305 5,700 -1,200 Descending FlightAware
10:12AM 69.9970 18.8760 186° South 249 287 5,100 -1,140 Descending FlightAware
10:12AM 69.9690 18.8750 181° South 247 284 4,600 -1,320 Descending FlightAware
10:13AM 69.9350 18.8810 177° South 245 282 3,900 -1,140 Descending FlightAware
10:13AM 69.9100 18.8760 184° South 235 270 3,600 -720 Descending FlightAware
10:13AM 69.8970 18.8790 175° South 229 264 3,500 -780 Descending FlightAware
10:14AM 69.8670 18.8890 173° South 221 254 3,100 -720 Descending FlightAware
10:14AM 69.8360 18.9000 173° South 206 237 2,800 -600 Descending FlightAware
10:15AM 69.8110 18.9100 172° South 179 206 2,500 -660 Descending FlightAware
10:15AM 69.7920 18.9200 170° South 159 183 2,200 -720 Descending FlightAware
10:16AM 69.7740 18.9290 170° South 157 181 1,900 -780 Descending FlightAware
10:16AM 69.7550 18.9380 171° South 152 175 1,500 -780 Descending FlightAware
10:17AM 69.7380 18.9460 171° South 154 177 1,200 -720 Descending FlightAware
10:21AM 69.6833 18.9189 14° North  Level Estimated
10:22AM 69.6833 18.9189 353° North  Level Estimated